Terminal Aerodrome Forecast
Issued by NWS Pittsburgh, PA

Current Version | Previous Version | Graphics & Text | Print | Product List | Glossary On
Versions: 1 2 3 4 5 6 7 8 9 10 11 12 13 14 15 16 17 18 19 20 21 22 23 24 25 26 27 28 29 30 31 32 33 34 35 36 37 38 39 40
650
FTUS41 KPBZ 291138
TAFPIT
TAF
KPIT 291138Z 2912/3018 28005KT 1/4SM FG VV001
     FM291300 29003KT 1SM BR SCT001 BKN040
     FM291330 32002KT 2SM BR BKN007
     FM291500 00000KT 4SM BR OVC015
     FM291600 26002KT P6SM BKN025
     FM291700 25003KT P6SM BKN050=

USA.gov is the U.S. government's official web portal to all federal, state and local government web resources and services.